x

South Moresby (46147) Wave Buoy

8:00am - Thu 25th Aug 2016 All times are PDT. -7 hours from GMT.

  • Sig Wave height 8.9ft
  • Peak Period 8s
  • Wind
    25mph, 31mph gusts
  • Sea Temp 58°f
  • Air Temp 58°f
  • Sea Pressure 1026.8mb
  • South Moresby
  • South Moresby

More Historic Weather Station data

Upgrade to MSW Pro to gain access to the past 30 days of data for over 8000 Wavebouys and Weather Stations around the globe.

Join Pro

Comparision Forecast

View Surf forecast
   
Thu 08/25 8:00am 9ft 8s 25 31 mph 1026.8mb 58f 58f
7:00am 9ft 9s 25 29 mph 1027.1mb 58f 58f
6:00am 8.5ft 8s 25 31 mph 1027.1mb 58f 58f
5:00am 8ft 8s 27 34 mph 1026.9mb 58f 58f
4:00am 8ft 8s 22 27 mph 1027.6mb 58f 58f
3:00am 8ft 8s 27 31 mph 1027.6mb 59f 58f
2:00am 8ft 8s 22 29 mph 1028mb 59f 59f
1:00am 8ft 8s 22 27 mph 1028.3mb 59f 59f
12:00am 8ft 8s 25 29 mph 1028.3mb 60f 58f
Wed 08/24 11:00pm 8ft 8s 22 27 mph 1028.6mb 60f 58f
10:00pm 7.5ft 8s 22 27 mph 1028.8mb 60f 59f
9:00pm 7ft 8s 22 29 mph 1028.5mb 60f 59f
8:00pm 6.5ft 8s 22 27 mph 1028.6mb 60f 60f
7:00pm 7ft 8s 22 27 mph 1028.7mb 58f 60f
6:00pm 6ft 8s 25 29 mph 1029mb 58f 60f
5:00pm 6.5ft 7s 27 31 mph 1028.9mb 57f 60f
4:00pm 6.5ft 6s 18 25 mph 1030mb 59f 60f
3:00pm 7ft 7s 22 27 mph 1030.3mb 59f 60f
2:00pm 7ft 7s 22 27 mph 1030.6mb 58f 59f
1:00pm 6ft 7s 22 27 mph 1030.8mb 58f 60f
12:00pm 6ft 6s 20 27 mph 1030.9mb 59f 60f
11:00am 5.5ft 6s 20 22 mph 1030.9mb 60f 60f
10:00am 5ft 15s 18 22 mph 1030.8mb 60f 60f
9:00am 5ft 10s 18 22 mph 1030.6mb 60f 60f
8:00am 5ft 6s 16 20 mph 1030.5mb 59f 60f
7:00am 5ft 10s 13 18 mph 1030.4mb 59f 60f
6:00am 5ft 10s 16 18 mph 1030.1mb 58f 60f
5:00am 4.5ft 5s 16 20 mph 1029.9mb 58f 60f
4:00am 4.5ft 15s 16 18 mph 1029.8mb 58f 60f
3:00am 4.5ft 16s 11 13 mph 1029.9mb 58f 59f
2:00am 4ft 16s 13 16 mph 1029.9mb 57f 60f
1:00am 3.5ft 16s 16 18 mph 1029.9mb 59f 60f
12:00am 3.5ft 16s 18 20 mph 1029.9mb 60f 60f
Tue 08/23 11:00pm 4ft 16s 18 20 mph 1029.9mb 59f 58f
10:00pm 4ft 16s 18 22 mph 1029.9mb 59f 58f
9:00pm 4.5ft 16s 22 27 mph 1029.5mb 60f 58f
8:00pm 4ft 16s 20 25 mph 1029.2mb 60f 58f
7:00pm  -   -  22
mph
1028.9mb 60f 58f
6:00pm 4ft 16s 18 22 mph 1029mb 60f 59f
4:00pm 3.5ft 16s 18 25 mph 1028.9mb 60f 59f
3:00pm 3.5ft 16s 18 22 mph 1028.9mb 60f 60f
2:00pm 3ft 16s 16 20 mph 1029.1mb 59f 61f
1:00pm 2.5ft 15s 16 18 mph 1028.9mb 59f 60f
12:00pm 2.5ft 17s 13 16 mph 1028.7mb 59f 60f
11:00am 3ft 14s 9 11 mph 1028.4mb 60f 60f
10:00am 3ft 14s 7 9 mph 1028.2mb 59f 60f
9:00am 3ft 17s 11 13 mph 1027.7mb 59f 60f
8:00am 3.5ft 14s 13 16 mph 1027.4mb 59f 60f
7:00am 3ft 14s 11 16 mph 1026.6mb 59f 59f
6:00am 3ft 14s 13 16 mph 1026.1mb 59f 59f
5:00am 3ft 14s 11
mph
1025.5mb 60f 59f
4:00am 3ft 14s 9
mph
1025.4mb 59f 59f
3:00am 3ft 14s 7 9 mph 1025.3mb 58f 59f
2:00am 3.5ft 15s 9 11 mph 1025.2mb 57f 59f
1:00am 3.5ft 14s 11 13 mph 1025.1mb 60f 60f
12:00am 3.5ft 15s 11 13 mph 1025.1mb 58f 59f
Mon 08/22 11:00pm 3ft 14s 13 16 mph 1024.9mb 58f 60f
10:00pm 3ft 15s 11 16 mph 1024.7mb 59f 60f
9:00pm 3.5ft 15s 13 18 mph 1024.2mb 60f 60f
8:00pm 3.5ft 15s 16 18 mph 1023.5mb 60f 60f
7:00pm 3.5ft 15s 13 16 mph 1023.4mb 60f 60f
6:00pm 3.5ft 14s 13 16 mph 1023.1mb 60f 60f
5:00pm 4ft 14s 11 13 mph 1023mb 60f 60f
4:00pm 4ft 14s 11 16 mph 1023mb 60f 60f
3:00pm 4.5ft 14s 13
mph
1023mb 59f 60f
2:00pm 4.5ft 15s 13 16 mph 1022.7mb 59f 60f
1:00pm 4.5ft 7s 13 18 mph 1022.3mb 59f 60f
12:00pm 4.5ft 7s 13 18 mph 1022mb 58f 59f
11:00am 4.5ft 16s 13 18 mph 1021.5mb 58f 59f
10:00am 4.5ft 8s 13 16 mph 1021mb 59f 59f
9:00am 5ft 8s 16 18 mph 1020.5mb 60f 59f
8:00am 5ft 15s 18 22 mph 1019.9mb 60f 59f
7:00am 5ft 7s 18 22 mph 1019.3mb 59f 59f
6:00am 6ft 16s 20 22 mph 1018.7mb 59f 59f
5:00am 6ft 7s 22 27 mph 1018.2mb 58f 59f
4:00am 6.5ft 7s 20 25 mph 1017.9mb 57f 59f
3:00am 6ft 8s 20 27 mph 1017.5mb 56f 59f
2:00am 6.5ft 7s 20 25 mph 1017.4mb 56f 59f
1:00am 6.5ft 8s 20 25 mph 1017.2mb 56f 59f
12:00am 7ft 8s 22 31 mph 1017mb 56f 59f
Sun 08/21 11:00pm 8ft 7s 22 29 mph 1016.9mb 57f 59f
10:00pm 8ft 7s 25 31 mph 1016.3mb 58f 60f
9:00pm 9ft 8s 27 34 mph 1015.8mb 59f 60f
8:00pm 8ft 8s 27 34 mph 1015.1mb 59f 60f
7:00pm 8ft 8s 27 34 mph 1014.8mb 59f 60f
6:00pm 7ft 7s 27 31 mph 1014.7mb 59f 60f
5:00pm 7ft 7s 27 34 mph 1014.5mb 58f 60f